sensor_id;sensor_type;location;lat;lon;timestamp;temperature;humidity
18930;DHT22;43305;52.186;5.598;2023-04-06T00:00:33;3.40;99.90
18930;DHT22;43305;52.186;5.598;2023-04-06T00:03:00;3.40;99.90
18930;DHT22;43305;52.186;5.598;2023-04-06T00:05:28;3.30;99.90
18930;DHT22;43305;52.186;5.598;2023-04-06T00:07:57;3.30;99.90
18930;DHT22;43305;52.186;5.598;2023-04-06T00:10:24;3.30;99.90
18930;DHT22;43305;52.186;5.598;2023-04-06T00:12:51;3.20;99.90
18930;DHT22;43305;52.186;5.598;2023-04-06T00:15:18;3.20;99.90
18930;DHT22;43305;52.186;5.598;2023-04-06T00:17:45;3.20;99.90
18930;DHT22;43305;52.186;5.598;2023-04-06T00:20:12;3.10;99.90
18930;DHT22;43305;52.186;5.598;2023-04-06T00:22:40;3.10;99.90
18930;DHT22;43305;52.186;5.598;2023-04-06T00:25:09;3.00;99.90
18930;DHT22;43305;52.186;5.598;2023-04-06T00:32:42;3.00;99.90
18930;DHT22;43305;52.186;5.598;2023-04-06T00:35:10;3.00;99.90
18930;DHT22;43305;52.186;5.598;2023-04-06T00:37:37;3.00;99.90
18930;DHT22;43305;52.186;5.598;2023-04-06T00:40:11;3.00;99.90
18930;DHT22;43305;52.186;5.598;2023-04-06T00:42:38;2.90;99.90
18930;DHT22;43305;52.186;5.598;2023-04-06T00:45:10;2.90;99.90
18930;DHT22;43305;52.186;5.598;2023-04-06T00:47:37;2.90;99.90
18930;DHT22;43305;52.186;5.598;2023-04-06T00:50:07;2.90;99.90
18930;DHT22;43305;52.186;5.598;2023-04-06T00:52:34;2.80;99.90
18930;DHT22;43305;52.186;5.598;2023-04-06T00:55:02;2.80;99.90
18930;DHT22;43305;52.186;5.598;2023-04-06T00:57:33;2.80;99.90
18930;DHT22;43305;52.186;5.598;2023-04-06T01:00:05;2.80;99.90
18930;DHT22;43305;52.186;5.598;2023-04-06T01:02:34;2.80;99.90
18930;DHT22;43305;52.186;5.598;2023-04-06T01:05:03;2.70;99.90
18930;DHT22;43305;52.186;5.598;2023-04-06T01:07:30;2.80;99.90
18930;DHT22;43305;52.186;5.598;2023-04-06T01:09:57;2.70;99.90
18930;DHT22;43305;52.186;5.598;2023-04-06T01:12:24;2.70;99.90
18930;DHT22;43305;52.186;5.598;2023-04-06T01:14:53;2.70;99.90
18930;DHT22;43305;52.186;5.598;2023-04-06T01:17:20;2.70;99.90
18930;DHT22;43305;52.186;5.598;2023-04-06T01:19:47;2.60;99.90
18930;DHT22;43305;52.186;5.598;2023-04-06T01:22:17;2.60;99.90
18930;DHT22;43305;52.186;5.598;2023-04-06T01:24:44;2.60;99.90
18930;DHT22;43305;52.186;5.598;2023-04-06T01:27:11;2.70;99.90
18930;DHT22;43305;52.186;5.598;2023-04-06T01:29:50;2.60;99.90
18930;DHT22;43305;52.186;5.598;2023-04-06T01:32:25;2.70;99.90
18930;DHT22;43305;52.186;5.598;2023-04-06T01:34:55;2.70;99.90
18930;DHT22;43305;52.186;5.598;2023-04-06T01:37:26;2.70;99.90
18930;DHT22;43305;52.186;5.598;2023-04-06T01:39:55;2.60;99.90
18930;DHT22;43305;52.186;5.598;2023-04-06T01:42:22;2.60;99.90
18930;DHT22;43305;52.186;5.598;2023-04-06T01:44:49;2.60;99.90
18930;DHT22;43305;52.186;5.598;2023-04-06T01:47:19;2.60;99.90
18930;DHT22;43305;52.186;5.598;2023-04-06T01:49:46;2.60;99.90
18930;DHT22;43305;52.186;5.598;2023-04-06T01:52:16;2.70;99.90
18930;DHT22;43305;52.186;5.598;2023-04-06T01:54:47;2.60;99.90
18930;DHT22;43305;52.186;5.598;2023-04-06T01:57:14;2.70;99.90
18930;DHT22;43305;52.186;5.598;2023-04-06T01:59:41;2.60;99.90
18930;DHT22;43305;52.186;5.598;2023-04-06T02:02:11;2.60;99.90
18930;DHT22;43305;52.186;5.598;2023-04-06T02:04:39;2.70;99.90
18930;DHT22;43305;52.186;5.598;2023-04-06T02:07:08;2.70;99.90
18930;DHT22;43305;52.186;5.598;2023-04-06T02:09:36;2.70;99.90
18930;DHT22;43305;52.186;5.598;2023-04-06T02:12:04;2.70;99.90
18930;DHT22;43305;52.186;5.598;2023-04-06T02:14:33;2.70;99.90
18930;DHT22;43305;52.186;5.598;2023-04-06T02:17:01;2.70;99.90
18930;DHT22;43305;52.186;5.598;2023-04-06T02:19:28;2.70;99.90
18930;DHT22;43305;52.186;5.598;2023-04-06T02:21:58;2.80;99.90
18930;DHT22;43305;52.186;5.598;2023-04-06T02:24:25;2.80;99.90
18930;DHT22;43305;52.186;5.598;2023-04-06T02:26:53;2.80;99.90
18930;DHT22;43305;52.186;5.598;2023-04-06T02:29:23;2.80;99.90
18930;DHT22;43305;52.186;5.598;2023-04-06T02:31:51;2.80;99.90
18930;DHT22;43305;52.186;5.598;2023-04-06T02:34:18;2.90;99.90
18930;DHT22;43305;52.186;5.598;2023-04-06T02:36:50;2.90;99.90
18930;DHT22;43305;52.186;5.598;2023-04-06T02:39:21;2.90;99.90
18930;DHT22;43305;52.186;5.598;2023-04-06T02:41:48;2.90;99.90
18930;DHT22;43305;52.186;5.598;2023-04-06T02:44:18;3.00;99.90
18930;DHT22;43305;52.186;5.598;2023-04-06T02:46:50;3.00;99.90
18930;DHT22;43305;52.186;5.598;2023-04-06T02:49:20;3.10;99.90
18930;DHT22;43305;52.186;5.598;2023-04-06T02:51:51;3.10;99.90
18930;DHT22;43305;52.186;5.598;2023-04-06T02:54:18;3.00;99.90
18930;DHT22;43305;52.186;5.598;2023-04-06T02:56:46;3.10;99.90
18930;DHT22;43305;52.186;5.598;2023-04-06T02:59:12;3.10;99.90
18930;DHT22;43305;52.186;5.598;2023-04-06T03:01:40;3.10;99.90
18930;DHT22;43305;52.186;5.598;2023-04-06T03:04:11;3.20;99.90
18930;DHT22;43305;52.186;5.598;2023-04-06T03:06:38;3.20;99.90
18930;DHT22;43305;52.186;5.598;2023-04-06T03:09:06;3.20;99.90
18930;DHT22;43305;52.186;5.598;2023-04-06T03:11:32;3.20;99.90
18930;DHT22;43305;52.186;5.598;2023-04-06T03:14:00;3.20;99.90
18930;DHT22;43305;52.186;5.598;2023-04-06T03:16:29;3.20;99.90
18930;DHT22;43305;52.186;5.598;2023-04-06T03:18:57;3.20;99.90
18930;DHT22;43305;52.186;5.598;2023-04-06T03:21:28;3.30;99.90
18930;DHT22;43305;52.186;5.598;2023-04-06T03:23:55;3.30;99.90
18930;DHT22;43305;52.186;5.598;2023-04-06T03:26:22;3.30;99.90
18930;DHT22;43305;52.186;5.598;2023-04-06T03:28:49;3.30;99.90
18930;DHT22;43305;52.186;5.598;2023-04-06T03:31:22;3.30;99.90
18930;DHT22;43305;52.186;5.598;2023-04-06T03:33:50;3.30;99.90
18930;DHT22;43305;52.186;5.598;2023-04-06T03:36:27;3.30;99.90
18930;DHT22;43305;52.186;5.598;2023-04-06T03:38:58;3.30;99.90
18930;DHT22;43305;52.186;5.598;2023-04-06T03:41:25;3.30;99.90
18930;DHT22;43305;52.186;5.598;2023-04-06T03:43:52;3.30;99.90
18930;DHT22;43305;52.186;5.598;2023-04-06T03:46:22;3.30;99.90
18930;DHT22;43305;52.186;5.598;2023-04-06T03:48:52;3.30;99.90
18930;DHT22;43305;52.186;5.598;2023-04-06T03:51:22;3.30;99.90
18930;DHT22;43305;52.186;5.598;2023-04-06T03:53:55;3.40;99.90
18930;DHT22;43305;52.186;5.598;2023-04-06T03:56:31;3.30;99.90
18930;DHT22;43305;52.186;5.598;2023-04-06T03:58:59;3.40;99.90
18930;DHT22;43305;52.186;5.598;2023-04-06T04:01:30;3.40;99.90
18930;DHT22;43305;52.186;5.598;2023-04-06T04:03:59;3.40;99.90
18930;DHT22;43305;52.186;5.598;2023-04-06T04:06:30;3.40;99.90
18930;DHT22;43305;52.186;5.598;2023-04-06T04:08:58;3.40;99.90
18930;DHT22;43305;52.186;5.598;2023-04-06T04:11:25;3.40;99.90
18930;DHT22;43305;52.186;5.598;2023-04-06T04:13:53;3.40;99.90
18930;DHT22;43305;52.186;5.598;2023-04-06T04:16:22;3.50;99.90
18930;DHT22;43305;52.186;5.598;2023-04-06T04:18:50;3.50;99.90
18930;DHT22;43305;52.186;5.598;2023-04-06T04:21:23;3.50;99.90
18930;DHT22;43305;52.186;5.598;2023-04-06T04:23:54;3.50;99.90
18930;DHT22;43305;52.186;5.598;2023-04-06T04:26:30;3.50;99.90
18930;DHT22;43305;52.186;5.598;2023-04-06T04:28:57;3.50;99.90
18930;DHT22;43305;52.186;5.598;2023-04-06T04:31:24;3.50;99.90
18930;DHT22;43305;52.186;5.598;2023-04-06T04:33:51;3.50;99.90
18930;DHT22;43305;52.186;5.598;2023-04-06T04:36:20;3.50;99.90
18930;DHT22;43305;52.186;5.598;2023-04-06T04:38:55;3.50;99.90
18930;DHT22;43305;52.186;5.598;2023-04-06T04:41:43;3.50;99.90
18930;DHT22;43305;52.186;5.598;2023-04-06T04:44:10;3.40;99.90
18930;DHT22;43305;52.186;5.598;2023-04-06T04:46:41;3.40;99.90
18930;DHT22;43305;52.186;5.598;2023-04-06T04:49:16;3.40;99.90
18930;DHT22;43305;52.186;5.598;2023-04-06T04:51:46;3.40;99.90
18930;DHT22;43305;52.186;5.598;2023-04-06T04:54:18;3.40;99.90
18930;DHT22;43305;52.186;5.598;2023-04-06T04:56:50;3.40;99.90
18930;DHT22;43305;52.186;5.598;2023-04-06T04:59:22;3.40;99.90
18930;DHT22;43305;52.186;5.598;2023-04-06T05:01:51;3.40;99.90
18930;DHT22;43305;52.186;5.598;2023-04-06T05:04:21;3.40;99.90
18930;DHT22;43305;52.186;5.598;2023-04-06T05:06:48;3.40;99.90
18930;DHT22;43305;52.186;5.598;2023-04-06T05:09:16;3.40;99.90
18930;DHT22;43305;52.186;5.598;2023-04-06T05:11:45;3.40;99.90
18930;DHT22;43305;52.186;5.598;2023-04-06T05:14:12;3.40;99.90
18930;DHT22;43305;52.186;5.598;2023-04-06T05:16:39;3.40;99.90
18930;DHT22;43305;52.186;5.598;2023-04-06T05:19:12;3.40;99.90
18930;DHT22;43305;52.186;5.598;2023-04-06T05:21:44;3.40;99.90
18930;DHT22;43305;52.186;5.598;2023-04-06T05:24:16;3.40;99.90
18930;DHT22;43305;52.186;5.598;2023-04-06T05:26:43;3.40;99.90
18930;DHT22;43305;52.186;5.598;2023-04-06T05:29:12;3.40;99.90
18930;DHT22;43305;52.186;5.598;2023-04-06T05:31:50;3.50;99.90
18930;DHT22;43305;52.186;5.598;2023-04-06T05:34:18;3.60;99.90
18930;DHT22;43305;52.186;5.598;2023-04-06T05:36:47;3.60;99.90
18930;DHT22;43305;52.186;5.598;2023-04-06T05:39:14;3.70;99.90
18930;DHT22;43305;52.186;5.598;2023-04-06T05:41:47;3.70;99.90
18930;DHT22;43305;52.186;5.598;2023-04-06T05:44:15;3.70;99.90
18930;DHT22;43305;52.186;5.598;2023-04-06T05:46:42;3.80;99.90
18930;DHT22;43305;52.186;5.598;2023-04-06T05:49:12;3.80;99.90
18930;DHT22;43305;52.186;5.598;2023-04-06T05:51:42;3.90;99.90
18930;DHT22;43305;52.186;5.598;2023-04-06T05:54:09;4.00;99.90
18930;DHT22;43305;52.186;5.598;2023-04-06T05:56:40;4.10;99.90
18930;DHT22;43305;52.186;5.598;2023-04-06T05:59:26;4.10;99.90
18930;DHT22;43305;52.186;5.598;2023-04-06T06:01:56;4.30;99.90
18930;DHT22;43305;52.186;5.598;2023-04-06T06:04:23;4.40;99.90
18930;DHT22;43305;52.186;5.598;2023-04-06T06:06:58;4.50;99.90
18930;DHT22;43305;52.186;5.598;2023-04-06T06:09:29;4.60;99.90
18930;DHT22;43305;52.186;5.598;2023-04-06T06:11:56;4.70;99.90
18930;DHT22;43305;52.186;5.598;2023-04-06T06:14:29;4.80;99.90
18930;DHT22;43305;52.186;5.598;2023-04-06T06:17:02;4.80;99.90
18930;DHT22;43305;52.186;5.598;2023-04-06T06:19:35;4.90;99.90
18930;DHT22;43305;52.186;5.598;2023-04-06T06:22:23;5.00;99.90
18930;DHT22;43305;52.186;5.598;2023-04-06T06:25:13;5.00;99.90
18930;DHT22;43305;52.186;5.598;2023-04-06T06:27:43;5.10;99.90
18930;DHT22;43305;52.186;5.598;2023-04-06T06:30:15;5.10;99.90
18930;DHT22;43305;52.186;5.598;2023-04-06T06:32:45;5.20;99.90
18930;DHT22;43305;52.186;5.598;2023-04-06T06:35:12;5.30;99.90
18930;DHT22;43305;52.186;5.598;2023-04-06T06:37:41;5.40;99.90
18930;DHT22;43305;52.186;5.598;2023-04-06T06:40:11;5.50;99.90
18930;DHT22;43305;52.186;5.598;2023-04-06T06:42:45;5.50;99.90
18930;DHT22;43305;52.186;5.598;2023-04-06T06:45:16;5.60;99.90
18930;DHT22;43305;52.186;5.598;2023-04-06T06:47:53;5.70;99.90
18930;DHT22;43305;52.186;5.598;2023-04-06T06:50:35;5.70;99.90
18930;DHT22;43305;52.186;5.598;2023-04-06T06:53:07;5.70;99.90
18930;DHT22;43305;52.186;5.598;2023-04-06T06:55:34;5.80;99.90
18930;DHT22;43305;52.186;5.598;2023-04-06T06:58:04;5.90;99.90
18930;DHT22;43305;52.186;5.598;2023-04-06T07:00:56;6.00;99.90
18930;DHT22;43305;52.186;5.598;2023-04-06T07:03:30;6.10;99.90
18930;DHT22;43305;52.186;5.598;2023-04-06T07:05:57;6.20;99.90
18930;DHT22;43305;52.186;5.598;2023-04-06T07:08:26;6.40;99.90
18930;DHT22;43305;52.186;5.598;2023-04-06T07:10:53;6.50;99.90
18930;DHT22;43305;52.186;5.598;2023-04-06T07:13:24;6.60;99.90
18930;DHT22;43305;52.186;5.598;2023-04-06T07:15:55;6.80;99.90
18930;DHT22;43305;52.186;5.598;2023-04-06T07:18:26;7.10;99.90
18930;DHT22;43305;52.186;5.598;2023-04-06T07:20:58;7.20;99.90
18930;DHT22;43305;52.186;5.598;2023-04-06T07:23:33;7.40;99.90
18930;DHT22;43305;52.186;5.598;2023-04-06T07:26:02;7.50;99.90
18930;DHT22;43305;52.186;5.598;2023-04-06T07:28:31;7.60;99.90
18930;DHT22;43305;52.186;5.598;2023-04-06T07:31:02;7.60;99.90
18930;DHT22;43305;52.186;5.598;2023-04-06T07:33:38;7.70;99.90
18930;DHT22;43305;52.186;5.598;2023-04-06T07:36:11;7.60;99.90
18930;DHT22;43305;52.186;5.598;2023-04-06T07:38:38;7.50;99.90
18930;DHT22;43305;52.186;5.598;2023-04-06T07:41:05;7.50;99.90
18930;DHT22;43305;52.186;5.598;2023-04-06T07:43:34;7.50;99.90
18930;DHT22;43305;52.186;5.598;2023-04-06T07:46:02;7.50;99.90
18930;DHT22;43305;52.186;5.598;2023-04-06T07:48:31;7.50;99.90
18930;DHT22;43305;52.186;5.598;2023-04-06T07:51:03;7.60;99.90
18930;DHT22;43305;52.186;5.598;2023-04-06T07:53:32;7.60;99.90
18930;DHT22;43305;52.186;5.598;2023-04-06T07:55:59;7.60;99.90
18930;DHT22;43305;52.186;5.598;2023-04-06T07:58:28;7.70;99.90
18930;DHT22;43305;52.186;5.598;2023-04-06T08:00:55;7.70;99.90
18930;DHT22;43305;52.186;5.598;2023-04-06T08:03:24;7.80;99.90
18930;DHT22;43305;52.186;5.598;2023-04-06T08:05:54;7.80;99.90
18930;DHT22;43305;52.186;5.598;2023-04-06T08:08:32;7.90;99.90
18930;DHT22;43305;52.186;5.598;2023-04-06T08:11:02;8.00;99.90
18930;DHT22;43305;52.186;5.598;2023-04-06T08:13:32;8.00;99.90
18930;DHT22;43305;52.186;5.598;2023-04-06T08:16:02;8.00;99.90
18930;DHT22;43305;52.186;5.598;2023-04-06T08:18:30;8.00;99.90
18930;DHT22;43305;52.186;5.598;2023-04-06T08:20:57;8.00;99.90
18930;DHT22;43305;52.186;5.598;2023-04-06T08:23:24;8.10;99.90
18930;DHT22;43305;52.186;5.598;2023-04-06T08:25:54;8.10;99.90
18930;DHT22;43305;52.186;5.598;2023-04-06T08:28:22;8.10;99.90
18930;DHT22;43305;52.186;5.598;2023-04-06T08:30:49;8.20;99.90
18930;DHT22;43305;52.186;5.598;2023-04-06T08:33:16;8.30;99.90
18930;DHT22;43305;52.186;5.598;2023-04-06T08:35:45;8.40;99.90
18930;DHT22;43305;52.186;5.598;2023-04-06T08:38:12;8.50;99.90
18930;DHT22;43305;52.186;5.598;2023-04-06T08:40:39;8.50;99.90
18930;DHT22;43305;52.186;5.598;2023-04-06T08:43:23;8.60;99.90
18930;DHT22;43305;52.186;5.598;2023-04-06T08:45:55;8.70;99.90
18930;DHT22;43305;52.186;5.598;2023-04-06T08:48:25;8.70;99.90
18930;DHT22;43305;52.186;5.598;2023-04-06T08:50:55;8.80;99.90
18930;DHT22;43305;52.186;5.598;2023-04-06T08:53:25;8.80;99.90
18930;DHT22;43305;52.186;5.598;2023-04-06T08:55:52;8.80;99.90
18930;DHT22;43305;52.186;5.598;2023-04-06T08:58:20;8.80;99.90
18930;DHT22;43305;52.186;5.598;2023-04-06T09:00:57;8.80;99.90
18930;DHT22;43305;52.186;5.598;2023-04-06T09:03:26;8.90;99.90
18930;DHT22;43305;52.186;5.598;2023-04-06T09:05:56;8.90;99.90
18930;DHT22;43305;52.186;5.598;2023-04-06T09:08:23;9.00;99.90
18930;DHT22;43305;52.186;5.598;2023-04-06T09:10:53;9.10;99.90
18930;DHT22;43305;52.186;5.598;2023-04-06T09:13:20;9.10;99.90
18930;DHT22;43305;52.186;5.598;2023-04-06T09:16:01;9.20;99.90
18930;DHT22;43305;52.186;5.598;2023-04-06T09:18:29;9.40;99.90
18930;DHT22;43305;52.186;5.598;2023-04-06T09:21:00;9.50;99.90
18930;DHT22;43305;52.186;5.598;2023-04-06T09:23:33;9.40;99.90
18930;DHT22;43305;52.186;5.598;2023-04-06T09:26:09;9.50;99.90
18930;DHT22;43305;52.186;5.598;2023-04-06T09:28:44;9.50;99.90
18930;DHT22;43305;52.186;5.598;2023-04-06T09:31:12;9.60;99.90
18930;DHT22;43305;52.186;5.598;2023-04-06T09:33:41;9.50;99.90
18930;DHT22;43305;52.186;5.598;2023-04-06T09:36:18;9.40;99.90
18930;DHT22;43305;52.186;5.598;2023-04-06T09:38:56;9.50;99.90
18930;DHT22;43305;52.186;5.598;2023-04-06T09:41:24;9.50;99.90
18930;DHT22;43305;52.186;5.598;2023-04-06T09:43:52;9.60;99.90
18930;DHT22;43305;52.186;5.598;2023-04-06T09:46:31;9.60;99.90
18930;DHT22;43305;52.186;5.598;2023-04-06T09:49:00;9.70;99.90
18930;DHT22;43305;52.186;5.598;2023-04-06T09:51:30;9.90;99.90
18930;DHT22;43305;52.186;5.598;2023-04-06T09:53:59;9.90;99.90
18930;DHT22;43305;52.186;5.598;2023-04-06T09:56:42;9.80;99.90
18930;DHT22;43305;52.186;5.598;2023-04-06T09:59:13;9.70;99.90
18930;DHT22;43305;52.186;5.598;2023-04-06T10:01:41;9.80;99.90
18930;DHT22;43305;52.186;5.598;2023-04-06T10:04:20;10.00;99.90
18930;DHT22;43305;52.186;5.598;2023-04-06T10:06:57;9.90;99.90
18930;DHT22;43305;52.186;5.598;2023-04-06T10:09:32;9.90;99.90
18930;DHT22;43305;52.186;5.598;2023-04-06T10:12:03;9.90;99.90
18930;DHT22;43305;52.186;5.598;2023-04-06T10:14:34;9.90;99.90
18930;DHT22;43305;52.186;5.598;2023-04-06T10:17:05;9.90;99.90
18930;DHT22;43305;52.186;5.598;2023-04-06T10:19:44;9.90;99.90
18930;DHT22;43305;52.186;5.598;2023-04-06T10:22:22;10.00;99.90
18930;DHT22;43305;52.186;5.598;2023-04-06T10:24:51;10.10;99.90
18930;DHT22;43305;52.186;5.598;2023-04-06T10:27:33;10.10;99.90
18930;DHT22;43305;52.186;5.598;2023-04-06T10:30:02;10.30;99.90
18930;DHT22;43305;52.186;5.598;2023-04-06T10:32:39;10.60;99.90
18930;DHT22;43305;52.186;5.598;2023-04-06T10:35:10;10.80;99.90
18930;DHT22;43305;52.186;5.598;2023-04-06T10:37:50;10.80;99.90
18930;DHT22;43305;52.186;5.598;2023-04-06T10:40:27;10.90;99.90
18930;DHT22;43305;52.186;5.598;2023-04-06T10:43:09;11.00;99.90
18930;DHT22;43305;52.186;5.598;2023-04-06T10:45:37;10.90;99.90
18930;DHT22;43305;52.186;5.598;2023-04-06T10:48:14;10.90;99.90
18930;DHT22;43305;52.186;5.598;2023-04-06T10:50:46;10.90;99.90
18930;DHT22;43305;52.186;5.598;2023-04-06T10:53:25;11.00;99.90
18930;DHT22;43305;52.186;5.598;2023-04-06T10:55:54;11.00;99.90
18930;DHT22;43305;52.186;5.598;2023-04-06T10:58:26;10.90;99.90
18930;DHT22;43305;52.186;5.598;2023-04-06T11:00:54;10.70;99.90
18930;DHT22;43305;52.186;5.598;2023-04-06T11:03:22;10.70;99.90
18930;DHT22;43305;52.186;5.598;2023-04-06T11:05:50;10.60;99.90
18930;DHT22;43305;52.186;5.598;2023-04-06T11:08:29;10.50;99.90
18930;DHT22;43305;52.186;5.598;2023-04-06T11:11:05;10.40;99.90
18930;DHT22;43305;52.186;5.598;2023-04-06T11:13:42;10.30;99.90
18930;DHT22;43305;52.186;5.598;2023-04-06T11:16:13;10.20;99.90
18930;DHT22;43305;52.186;5.598;2023-04-06T11:18:54;10.20;99.90
18930;DHT22;43305;52.186;5.598;2023-04-06T11:21:33;10.30;99.90
18930;DHT22;43305;52.186;5.598;2023-04-06T11:24:12;10.20;99.90
18930;DHT22;43305;52.186;5.598;2023-04-06T11:26:40;10.00;99.90
18930;DHT22;43305;52.186;5.598;2023-04-06T11:29:09;10.10;99.90
18930;DHT22;43305;52.186;5.598;2023-04-06T11:31:46;10.00;99.90
18930;DHT22;43305;52.186;5.598;2023-04-06T11:34:16;9.80;99.90
18930;DHT22;43305;52.186;5.598;2023-04-06T11:36:44;9.70;99.90
18930;DHT22;43305;52.186;5.598;2023-04-06T11:39:20;9.70;99.90
18930;DHT22;43305;52.186;5.598;2023-04-06T11:41:58;9.60;99.90
18930;DHT22;43305;52.186;5.598;2023-04-06T11:44:36;9.50;99.90
18930;DHT22;43305;52.186;5.598;2023-04-06T11:47:05;9.40;99.90
18930;DHT22;43305;52.186;5.598;2023-04-06T11:49:36;9.30;99.90
18930;DHT22;43305;52.186;5.598;2023-04-06T11:52:14;9.20;99.90
18930;DHT22;43305;52.186;5.598;2023-04-06T11:54:44;9.20;99.90
18930;DHT22;43305;52.186;5.598;2023-04-06T11:57:14;9.10;99.90
18930;DHT22;43305;52.186;5.598;2023-04-06T11:59:45;9.20;99.90
18930;DHT22;43305;52.186;5.598;2023-04-06T12:02:12;9.30;99.90
18930;DHT22;43305;52.186;5.598;2023-04-06T12:04:40;9.40;99.90
18930;DHT22;43305;52.186;5.598;2023-04-06T12:07:07;9.40;99.90
18930;DHT22;43305;52.186;5.598;2023-04-06T12:09:39;9.30;99.90
18930;DHT22;43305;52.186;5.598;2023-04-06T12:12:18;9.30;99.90
18930;DHT22;43305;52.186;5.598;2023-04-06T12:14:50;9.20;99.90
18930;DHT22;43305;52.186;5.598;2023-04-06T12:17:27;9.10;99.90
18930;DHT22;43305;52.186;5.598;2023-04-06T12:20:06;8.90;99.90
18930;DHT22;43305;52.186;5.598;2023-04-06T12:22:44;8.90;99.90
18930;DHT22;43305;52.186;5.598;2023-04-06T12:25:28;8.80;99.90
18930;DHT22;43305;52.186;5.598;2023-04-06T12:28:09;8.80;99.90
18930;DHT22;43305;52.186;5.598;2023-04-06T12:30:41;8.80;99.90
18930;DHT22;43305;52.186;5.598;2023-04-06T12:33:15;8.90;99.90
18930;DHT22;43305;52.186;5.598;2023-04-06T12:35:45;8.90;99.90
18930;DHT22;43305;52.186;5.598;2023-04-06T12:38:15;8.90;99.90
18930;DHT22;43305;52.186;5.598;2023-04-06T12:40:42;8.90;99.90
18930;DHT22;43305;52.186;5.598;2023-04-06T12:43:11;8.90;99.90
18930;DHT22;43305;52.186;5.598;2023-04-06T12:45:38;8.90;99.90
18930;DHT22;43305;52.186;5.598;2023-04-06T12:48:05;8.90;99.90
18930;DHT22;43305;52.186;5.598;2023-04-06T12:50:32;8.90;99.90
18930;DHT22;43305;52.186;5.598;2023-04-06T12:52:59;8.90;99.90
18930;DHT22;43305;52.186;5.598;2023-04-06T12:55:29;8.90;99.90
18930;DHT22;43305;52.186;5.598;2023-04-06T12:57:56;8.90;99.90
18930;DHT22;43305;52.186;5.598;2023-04-06T13:00:25;8.90;99.90
18930;DHT22;43305;52.186;5.598;2023-04-06T13:02:52;8.80;99.90
18930;DHT22;43305;52.186;5.598;2023-04-06T13:05:19;8.90;99.90
18930;DHT22;43305;52.186;5.598;2023-04-06T13:07:46;8.90;99.90
18930;DHT22;43305;52.186;5.598;2023-04-06T13:10:13;8.80;99.90
18930;DHT22;43305;52.186;5.598;2023-04-06T13:12:40;8.80;99.90
18930;DHT22;43305;52.186;5.598;2023-04-06T13:15:08;8.70;99.90
18930;DHT22;43305;52.186;5.598;2023-04-06T13:17:36;8.70;99.90
18930;DHT22;43305;52.186;5.598;2023-04-06T13:20:04;8.60;99.90
18930;DHT22;43305;52.186;5.598;2023-04-06T13:22:31;8.50;99.90
18930;DHT22;43305;52.186;5.598;2023-04-06T13:24:58;8.40;99.90
18930;DHT22;43305;52.186;5.598;2023-04-06T13:27:28;8.30;99.90
18930;DHT22;43305;52.186;5.598;2023-04-06T13:30:04;8.40;99.90
18930;DHT22;43305;52.186;5.598;2023-04-06T13:32:32;8.40;99.90
18930;DHT22;43305;52.186;5.598;2023-04-06T13:35:00;8.40;99.90
18930;DHT22;43305;52.186;5.598;2023-04-06T13:37:29;8.40;99.90
18930;DHT22;43305;52.186;5.598;2023-04-06T13:39:55;8.40;99.90
18930;DHT22;43305;52.186;5.598;2023-04-06T13:42:23;8.40;99.90
18930;DHT22;43305;52.186;5.598;2023-04-06T13:44:50;8.40;99.90
18930;DHT22;43305;52.186;5.598;2023-04-06T13:47:18;8.40;99.90
18930;DHT22;43305;52.186;5.598;2023-04-06T13:49:46;8.40;99.90
18930;DHT22;43305;52.186;5.598;2023-04-06T13:52:14;8.40;99.90
18930;DHT22;43305;52.186;5.598;2023-04-06T13:54:41;8.40;99.90
18930;DHT22;43305;52.186;5.598;2023-04-06T13:57:11;8.40;99.90
18930;DHT22;43305;52.186;5.598;2023-04-06T13:59:39;8.30;99.90
18930;DHT22;43305;52.186;5.598;2023-04-06T14:02:06;8.40;99.90
18930;DHT22;43305;52.186;5.598;2023-04-06T14:04:34;8.30;99.90
18930;DHT22;43305;52.186;5.598;2023-04-06T14:07:02;8.30;99.90
18930;DHT22;43305;52.186;5.598;2023-04-06T14:09:30;8.30;99.90
18930;DHT22;43305;52.186;5.598;2023-04-06T14:11:57;8.30;99.90
18930;DHT22;43305;52.186;5.598;2023-04-06T14:14:24;8.30;99.90
18930;DHT22;43305;52.186;5.598;2023-04-06T14:16:52;8.20;99.90
18930;DHT22;43305;52.186;5.598;2023-04-06T14:19:20;8.20;99.90
18930;DHT22;43305;52.186;5.598;2023-04-06T14:21:50;8.20;99.90
18930;DHT22;43305;52.186;5.598;2023-04-06T14:24:25;8.20;99.90
18930;DHT22;43305;52.186;5.598;2023-04-06T14:26:57;8.20;99.90
18930;DHT22;43305;52.186;5.598;2023-04-06T14:29:24;8.10;99.90
18930;DHT22;43305;52.186;5.598;2023-04-06T14:31:52;8.00;99.90
18930;DHT22;43305;52.186;5.598;2023-04-06T14:34:25;8.00;99.90
18930;DHT22;43305;52.186;5.598;2023-04-06T14:36:52;8.00;99.90
18930;DHT22;43305;52.186;5.598;2023-04-06T14:39:23;8.00;99.90
18930;DHT22;43305;52.186;5.598;2023-04-06T14:41:50;7.90;99.90
18930;DHT22;43305;52.186;5.598;2023-04-06T14:44:33;7.90;99.90
18930;DHT22;43305;52.186;5.598;2023-04-06T14:47:02;7.90;99.90
18930;DHT22;43305;52.186;5.598;2023-04-06T14:49:32;7.90;99.90
18930;DHT22;43305;52.186;5.598;2023-04-06T14:52:00;7.90;99.90
18930;DHT22;43305;52.186;5.598;2023-04-06T14:54:27;7.90;99.90
18930;DHT22;43305;52.186;5.598;2023-04-06T14:56:54;7.90;99.90
18930;DHT22;43305;52.186;5.598;2023-04-06T14:59:32;7.90;99.90
18930;DHT22;43305;52.186;5.598;2023-04-06T15:01:59;7.90;99.90
18930;DHT22;43305;52.186;5.598;2023-04-06T15:04:35;7.90;99.90
18930;DHT22;43305;52.186;5.598;2023-04-06T15:07:05;7.80;99.90
18930;DHT22;43305;52.186;5.598;2023-04-06T15:09:32;7.90;99.90
18930;DHT22;43305;52.186;5.598;2023-04-06T15:11:59;7.90;99.90
18930;DHT22;43305;52.186;5.598;2023-04-06T15:14:27;7.90;99.90
18930;DHT22;43305;52.186;5.598;2023-04-06T15:16:55;7.90;99.90
18930;DHT22;43305;52.186;5.598;2023-04-06T15:19:22;7.90;99.90
18930;DHT22;43305;52.186;5.598;2023-04-06T15:21:55;8.00;99.90
18930;DHT22;43305;52.186;5.598;2023-04-06T15:24:22;7.90;99.90
18930;DHT22;43305;52.186;5.598;2023-04-06T15:26:55;7.90;99.90
18930;DHT22;43305;52.186;5.598;2023-04-06T15:29:25;7.90;99.90
18930;DHT22;43305;52.186;5.598;2023-04-06T15:31:55;8.00;99.90
18930;DHT22;43305;52.186;5.598;2023-04-06T15:34:23;7.90;99.90
18930;DHT22;43305;52.186;5.598;2023-04-06T15:36:50;7.90;99.90
18930;DHT22;43305;52.186;5.598;2023-04-06T15:39:30;7.90;99.90
18930;DHT22;43305;52.186;5.598;2023-04-06T15:42:15;7.80;99.90
18930;DHT22;43305;52.186;5.598;2023-04-06T15:44:52;7.80;99.90
18930;DHT22;43305;52.186;5.598;2023-04-06T15:47:21;7.80;99.90
18930;DHT22;43305;52.186;5.598;2023-04-06T15:49:48;7.80;99.90
18930;DHT22;43305;52.186;5.598;2023-04-06T15:52:22;7.80;99.90
18930;DHT22;43305;52.186;5.598;2023-04-06T15:54:55;7.80;99.90
18930;DHT22;43305;52.186;5.598;2023-04-06T15:57:23;7.80;99.90
18930;DHT22;43305;52.186;5.598;2023-04-06T15:59:50;7.80;99.90
18930;DHT22;43305;52.186;5.598;2023-04-06T16:02:22;7.80;99.90
18930;DHT22;43305;52.186;5.598;2023-04-06T16:04:53;7.80;99.90
18930;DHT22;43305;52.186;5.598;2023-04-06T16:07:20;7.70;99.90
18930;DHT22;43305;52.186;5.598;2023-04-06T16:09:48;7.70;99.90